sensor_id;sensor_type;location;lat;lon;timestamp;P1;durP1;ratioP1;P2;durP2;ratioP2
33206;SDS011;19565;46.602;11.534;2023-09-12T00:00:51;6.25;;;4.43;;
33206;SDS011;19565;46.602;11.534;2023-09-12T00:03:20;4.70;;;4.22;;
33206;SDS011;19565;46.602;11.534;2023-09-12T00:05:50;7.07;;;4.47;;
33206;SDS011;19565;46.602;11.534;2023-09-12T00:08:18;6.47;;;5.03;;
33206;SDS011;19565;46.602;11.534;2023-09-12T00:10:46;4.28;;;3.95;;
33206;SDS011;19565;46.602;11.534;2023-09-12T00:13:26;4.68;;;4.28;;
33206;SDS011;19565;46.602;11.534;2023-09-12T00:15:54;5.00;;;4.55;;
33206;SDS011;19565;46.602;11.534;2023-09-12T00:18:22;6.03;;;5.55;;
33206;SDS011;19565;46.602;11.534;2023-09-12T00:20:50;4.97;;;4.10;;
33206;SDS011;19565;46.602;11.534;2023-09-12T00:23:19;4.78;;;4.07;;
33206;SDS011;19565;46.602;11.534;2023-09-12T00:25:49;6.80;;;4.38;;
33206;SDS011;19565;46.602;11.534;2023-09-12T00:28:17;4.28;;;3.85;;
33206;SDS011;19565;46.602;11.534;2023-09-12T00:30:47;3.67;;;3.38;;
33206;SDS011;19565;46.602;11.534;2023-09-12T00:33:15;3.33;;;2.90;;
33206;SDS011;19565;46.602;11.534;2023-09-12T00:35:43;3.05;;;2.75;;
33206;SDS011;19565;46.602;11.534;2023-09-12T00:38:12;2.90;;;2.00;;
33206;SDS011;19565;46.602;11.534;2023-09-12T00:40:40;5.78;;;3.88;;
33206;SDS011;19565;46.602;11.534;2023-09-12T00:43:08;5.32;;;3.28;;
33206;SDS011;19565;46.602;11.534;2023-09-12T00:45:36;4.68;;;3.88;;
33206;SDS011;19565;46.602;11.534;2023-09-12T00:48:06;4.97;;;2.83;;
33206;SDS011;19565;46.602;11.534;2023-09-12T00:50:35;3.13;;;2.83;;
33206;SDS011;19565;46.602;11.534;2023-09-12T00:53:04;3.47;;;2.78;;
33206;SDS011;19565;46.602;11.534;2023-09-12T00:55:33;3.80;;;2.80;;
33206;SDS011;19565;46.602;11.534;2023-09-12T00:58:04;4.93;;;3.38;;
33206;SDS011;19565;46.602;11.534;2023-09-12T01:00:33;4.30;;;2.60;;
33206;SDS011;19565;46.602;11.534;2023-09-12T01:03:01;4.40;;;2.67;;
33206;SDS011;19565;46.602;11.534;2023-09-12T01:05:32;9.50;;;3.35;;
33206;SDS011;19565;46.602;11.534;2023-09-12T01:08:00;2.83;;;2.53;;
33206;SDS011;19565;46.602;11.534;2023-09-12T01:10:29;4.97;;;3.75;;
33206;SDS011;19565;46.602;11.534;2023-09-12T01:12:57;4.88;;;3.10;;
33206;SDS011;19565;46.602;11.534;2023-09-12T01:15:25;4.78;;;2.67;;
33206;SDS011;19565;46.602;11.534;2023-09-12T01:17:53;3.17;;;2.45;;
33206;SDS011;19565;46.602;11.534;2023-09-12T01:20:23;2.92;;;2.03;;
33206;SDS011;19565;46.602;11.534;2023-09-12T01:22:58;4.18;;;3.70;;
33206;SDS011;19565;46.602;11.534;2023-09-12T01:25:42;4.97;;;3.28;;
33206;SDS011;19565;46.602;11.534;2023-09-12T01:28:23;6.80;;;4.28;;
33206;SDS011;19565;46.602;11.534;2023-09-12T01:30:52;3.45;;;3.17;;
33206;SDS011;19565;46.602;11.534;2023-09-12T01:33:21;6.35;;;4.53;;
33206;SDS011;19565;46.602;11.534;2023-09-12T01:35:49;3.75;;;3.22;;
33206;SDS011;19565;46.602;11.534;2023-09-12T01:38:17;4.60;;;2.35;;
33206;SDS011;19565;46.602;11.534;2023-09-12T01:40:47;6.38;;;2.97;;
33206;SDS011;19565;46.602;11.534;2023-09-12T01:43:17;6.88;;;4.28;;
33206;SDS011;19565;46.602;11.534;2023-09-12T01:45:48;4.35;;;3.28;;
33206;SDS011;19565;46.602;11.534;2023-09-12T01:48:20;4.57;;;3.63;;
33206;SDS011;19565;46.602;11.534;2023-09-12T01:50:50;5.07;;;4.00;;
33206;SDS011;19565;46.602;11.534;2023-09-12T01:53:19;11.02;;;4.07;;
33206;SDS011;19565;46.602;11.534;2023-09-12T01:55:47;5.40;;;3.50;;
33206;SDS011;19565;46.602;11.534;2023-09-12T01:58:16;2.72;;;2.53;;
33206;SDS011;19565;46.602;11.534;2023-09-12T02:00:44;5.60;;;2.30;;
33206;SDS011;19565;46.602;11.534;2023-09-12T02:03:13;8.85;;;4.22;;
33206;SDS011;19565;46.602;11.534;2023-09-12T02:05:42;4.70;;;2.78;;
33206;SDS011;19565;46.602;11.534;2023-09-12T02:08:10;3.80;;;3.50;;
33206;SDS011;19565;46.602;11.534;2023-09-12T02:10:38;4.53;;;4.13;;
33206;SDS011;19565;46.602;11.534;2023-09-12T02:13:06;4.30;;;2.92;;
33206;SDS011;19565;46.602;11.534;2023-09-12T02:15:34;4.13;;;2.33;;
33206;SDS011;19565;46.602;11.534;2023-09-12T02:18:02;7.57;;;4.30;;
33206;SDS011;19565;46.602;11.534;2023-09-12T02:20:32;3.88;;;2.88;;
33206;SDS011;19565;46.602;11.534;2023-09-12T02:23:00;8.73;;;4.90;;
33206;SDS011;19565;46.602;11.534;2023-09-12T02:25:28;4.65;;;2.72;;
33206;SDS011;19565;46.602;11.534;2023-09-12T02:27:56;7.00;;;4.22;;
33206;SDS011;19565;46.602;11.534;2023-09-12T02:30:24;5.13;;;3.08;;
33206;SDS011;19565;46.602;11.534;2023-09-12T02:32:52;3.13;;;2.75;;
33206;SDS011;19565;46.602;11.534;2023-09-12T02:35:20;2.97;;;2.38;;
33206;SDS011;19565;46.602;11.534;2023-09-12T02:37:50;4.05;;;2.45;;
33206;SDS011;19565;46.602;11.534;2023-09-12T02:40:18;4.00;;;3.63;;
33206;SDS011;19565;46.602;11.534;2023-09-12T02:42:46;5.80;;;3.60;;
33206;SDS011;19565;46.602;11.534;2023-09-12T02:45:14;6.18;;;3.70;;
33206;SDS011;19565;46.602;11.534;2023-09-12T02:47:42;3.50;;;3.20;;
33206;SDS011;19565;46.602;11.534;2023-09-12T02:50:12;9.15;;;3.38;;
33206;SDS011;19565;46.602;11.534;2023-09-12T02:52:40;9.07;;;4.20;;
33206;SDS011;19565;46.602;11.534;2023-09-12T02:55:09;4.57;;;3.40;;
33206;SDS011;19565;46.602;11.534;2023-09-12T02:57:38;3.42;;;2.97;;
33206;SDS011;19565;46.602;11.534;2023-09-12T03:00:06;4.07;;;3.17;;
33206;SDS011;19565;46.602;11.534;2023-09-12T03:02:36;4.38;;;2.88;;
33206;SDS011;19565;46.602;11.534;2023-09-12T03:05:04;4.45;;;3.15;;
33206;SDS011;19565;46.602;11.534;2023-09-12T03:07:32;9.98;;;3.78;;
33206;SDS011;19565;46.602;11.534;2023-09-12T03:10:00;5.65;;;2.38;;
33206;SDS011;19565;46.602;11.534;2023-09-12T03:12:29;5.93;;;3.83;;
33206;SDS011;19565;46.602;11.534;2023-09-12T03:14:57;5.28;;;3.60;;
33206;SDS011;19565;46.602;11.534;2023-09-12T03:17:25;2.58;;;2.10;;
33206;SDS011;19565;46.602;11.534;2023-09-12T03:19:55;4.55;;;2.58;;
33206;SDS011;19565;46.602;11.534;2023-09-12T03:22:23;5.80;;;5.22;;
33206;SDS011;19565;46.602;11.534;2023-09-12T03:24:51;5.57;;;3.22;;
33206;SDS011;19565;46.602;11.534;2023-09-12T03:27:19;5.28;;;3.63;;
33206;SDS011;19565;46.602;11.534;2023-09-12T03:29:49;5.10;;;4.47;;
33206;SDS011;19565;46.602;11.534;2023-09-12T03:32:16;4.75;;;3.08;;
33206;SDS011;19565;46.602;11.534;2023-09-12T03:34:44;4.82;;;3.55;;
33206;SDS011;19565;46.602;11.534;2023-09-12T03:37:12;5.15;;;3.60;;
33206;SDS011;19565;46.602;11.534;2023-09-12T03:39:40;3.65;;;3.35;;
33206;SDS011;19565;46.602;11.534;2023-09-12T03:42:08;5.45;;;2.42;;
33206;SDS011;19565;46.602;11.534;2023-09-12T03:44:36;5.68;;;3.55;;
33206;SDS011;19565;46.602;11.534;2023-09-12T03:47:06;6.38;;;3.75;;
33206;SDS011;19565;46.602;11.534;2023-09-12T03:49:34;6.97;;;4.10;;
33206;SDS011;19565;46.602;11.534;2023-09-12T03:52:02;8.20;;;7.53;;
33206;SDS011;19565;46.602;11.534;2023-09-12T03:54:31;8.57;;;7.88;;
33206;SDS011;19565;46.602;11.534;2023-09-12T03:56:59;7.70;;;7.00;;
33206;SDS011;19565;46.602;11.534;2023-09-12T03:59:27;12.77;;;8.52;;
33206;SDS011;19565;46.602;11.534;2023-09-12T04:01:55;7.90;;;7.30;;
33206;SDS011;19565;46.602;11.534;2023-09-12T04:04:24;10.05;;;9.20;;
33206;SDS011;19565;46.602;11.534;2023-09-12T04:06:52;8.85;;;8.15;;
33206;SDS011;19565;46.602;11.534;2023-09-12T04:09:21;7.28;;;3.35;;
33206;SDS011;19565;46.602;11.534;2023-09-12T04:11:49;5.38;;;4.13;;
33206;SDS011;19565;46.602;11.534;2023-09-12T04:14:18;4.68;;;3.53;;
33206;SDS011;19565;46.602;11.534;2023-09-12T04:16:47;3.58;;;2.53;;
33206;SDS011;19565;46.602;11.534;2023-09-12T04:19:16;4.80;;;3.50;;
33206;SDS011;19565;46.602;11.534;2023-09-12T04:21:45;4.53;;;3.13;;
33206;SDS011;19565;46.602;11.534;2023-09-12T04:24:13;4.80;;;3.80;;
33206;SDS011;19565;46.602;11.534;2023-09-12T04:26:43;2.72;;;1.70;;
33206;SDS011;19565;46.602;11.534;2023-09-12T04:29:11;2.75;;;2.45;;
33206;SDS011;19565;46.602;11.534;2023-09-12T04:31:39;6.32;;;4.50;;
33206;SDS011;19565;46.602;11.534;2023-09-12T04:34:07;4.65;;;2.63;;
33206;SDS011;19565;46.602;11.534;2023-09-12T04:36:35;3.40;;;2.58;;
33206;SDS011;19565;46.602;11.534;2023-09-12T04:39:04;4.38;;;3.50;;
33206;SDS011;19565;46.602;11.534;2023-09-12T04:41:32;5.28;;;3.33;;
33206;SDS011;19565;46.602;11.534;2023-09-12T04:44:00;4.50;;;3.75;;
33206;SDS011;19565;46.602;11.534;2023-09-12T04:46:28;3.00;;;2.70;;
33206;SDS011;19565;46.602;11.534;2023-09-12T04:48:56;4.05;;;3.63;;
33206;SDS011;19565;46.602;11.534;2023-09-12T04:51:24;5.68;;;4.00;;
33206;SDS011;19565;46.602;11.534;2023-09-12T04:53:53;2.92;;;2.17;;
33206;SDS011;19565;46.602;11.534;2023-09-12T04:56:23;3.20;;;2.63;;
33206;SDS011;19565;46.602;11.534;2023-09-12T04:58:51;2.17;;;1.98;;
33206;SDS011;19565;46.602;11.534;2023-09-12T05:01:19;4.78;;;2.47;;
33206;SDS011;19565;46.602;11.534;2023-09-12T05:03:47;4.72;;;2.85;;
33206;SDS011;19565;46.602;11.534;2023-09-12T05:06:15;4.72;;;3.42;;
33206;SDS011;19565;46.602;11.534;2023-09-12T05:08:43;2.28;;;2.08;;
33206;SDS011;19565;46.602;11.534;2023-09-12T05:11:11;3.60;;;2.42;;
33206;SDS011;19565;46.602;11.534;2023-09-12T05:13:40;7.25;;;3.58;;
33206;SDS011;19565;46.602;11.534;2023-09-12T05:16:08;16.88;;;3.60;;
33206;SDS011;19565;46.602;11.534;2023-09-12T05:18:36;8.88;;;3.03;;
33206;SDS011;19565;46.602;11.534;2023-09-12T05:21:04;4.22;;;3.38;;
33206;SDS011;19565;46.602;11.534;2023-09-12T05:23:32;2.72;;;2.25;;
33206;SDS011;19565;46.602;11.534;2023-09-12T05:26:00;2.72;;;2.03;;
33206;SDS011;19565;46.602;11.534;2023-09-12T05:28:29;3.47;;;2.78;;
33206;SDS011;19565;46.602;11.534;2023-09-12T05:30:58;3.33;;;2.15;;
33206;SDS011;19565;46.602;11.534;2023-09-12T05:33:26;2.78;;;2.58;;
33206;SDS011;19565;46.602;11.534;2023-09-12T05:35:58;1.83;;;1.70;;
33206;SDS011;19565;46.602;11.534;2023-09-12T05:38:26;4.85;;;3.67;;
33206;SDS011;19565;46.602;11.534;2023-09-12T05:40:54;4.20;;;2.45;;
33206;SDS011;19565;46.602;11.534;2023-09-12T05:43:22;6.55;;;2.85;;
33206;SDS011;19565;46.602;11.534;2023-09-12T05:45:51;3.55;;;2.92;;
33206;SDS011;19565;46.602;11.534;2023-09-12T05:48:21;4.35;;;3.28;;
33206;SDS011;19565;46.602;11.534;2023-09-12T05:50:49;2.35;;;2.10;;
33206;SDS011;19565;46.602;11.534;2023-09-12T05:53:17;3.75;;;2.60;;
33206;SDS011;19565;46.602;11.534;2023-09-12T05:55:45;5.55;;;2.38;;
33206;SDS011;19565;46.602;11.534;2023-09-12T05:58:13;3.58;;;2.45;;
33206;SDS011;19565;46.602;11.534;2023-09-12T06:00:40;5.32;;;4.82;;
33206;SDS011;19565;46.602;11.534;2023-09-12T06:03:09;6.28;;;5.68;;
33206;SDS011;19565;46.602;11.534;2023-09-12T06:05:38;6.07;;;4.88;;
33206;SDS011;19565;46.602;11.534;2023-09-12T06:08:06;4.57;;;4.15;;
33206;SDS011;19565;46.602;11.534;2023-09-12T06:10:34;5.78;;;4.75;;
33206;SDS011;19565;46.602;11.534;2023-09-12T06:13:02;8.70;;;4.90;;
33206;SDS011;19565;46.602;11.534;2023-09-12T06:15:31;8.00;;;7.40;;
33206;SDS011;19565;46.602;11.534;2023-09-12T06:17:59;7.40;;;6.03;;
33206;SDS011;19565;46.602;11.534;2023-09-12T06:20:27;7.13;;;6.43;;
33206;SDS011;19565;46.602;11.534;2023-09-12T06:22:56;4.82;;;4.45;;
33206;SDS011;19565;46.602;11.534;2023-09-12T06:25:25;6.22;;;5.63;;
33206;SDS011;19565;46.602;11.534;2023-09-12T06:27:53;5.97;;;5.47;;
33206;SDS011;19565;46.602;11.534;2023-09-12T06:30:21;5.45;;;5.00;;
33206;SDS011;19565;46.602;11.534;2023-09-12T06:32:49;7.03;;;6.32;;
33206;SDS011;19565;46.602;11.534;2023-09-12T06:35:17;5.50;;;5.10;;
33206;SDS011;19565;46.602;11.534;2023-09-12T06:37:45;7.88;;;7.18;;
33206;SDS011;19565;46.602;11.534;2023-09-12T06:40:14;6.20;;;5.60;;
33206;SDS011;19565;46.602;11.534;2023-09-12T06:42:46;6.38;;;5.88;;
33206;SDS011;19565;46.602;11.534;2023-09-12T06:45:14;5.38;;;4.88;;
33206;SDS011;19565;46.602;11.534;2023-09-12T06:47:42;7.13;;;6.60;;
33206;SDS011;19565;46.602;11.534;2023-09-12T06:50:10;8.25;;;6.72;;
33206;SDS011;19565;46.602;11.534;2023-09-12T06:52:41;6.50;;;5.75;;
33206;SDS011;19565;46.602;11.534;2023-09-12T06:55:09;7.05;;;6.38;;
33206;SDS011;19565;46.602;11.534;2023-09-12T06:57:38;5.50;;;5.07;;
33206;SDS011;19565;46.602;11.534;2023-09-12T07:00:07;6.53;;;6.03;;
33206;SDS011;19565;46.602;11.534;2023-09-12T07:02:36;6.57;;;6.07;;
33206;SDS011;19565;46.602;11.534;2023-09-12T07:05:04;7.35;;;5.55;;
33206;SDS011;19565;46.602;11.534;2023-09-12T07:07:33;6.75;;;6.25;;
33206;SDS011;19565;46.602;11.534;2023-09-12T07:10:01;8.02;;;7.30;;
33206;SDS011;19565;46.602;11.534;2023-09-12T07:12:51;8.10;;;7.45;;
33206;SDS011;19565;46.602;11.534;2023-09-12T07:15:20;9.05;;;8.32;;
33206;SDS011;19565;46.602;11.534;2023-09-12T07:17:48;9.68;;;8.98;;
33206;SDS011;19565;46.602;11.534;2023-09-12T07:20:17;9.48;;;8.77;;
33206;SDS011;19565;46.602;11.534;2023-09-12T07:22:46;9.90;;;9.10;;
33206;SDS011;19565;46.602;11.534;2023-09-12T07:25:14;12.10;;;10.98;;
33206;SDS011;19565;46.602;11.534;2023-09-12T07:27:42;11.15;;;10.25;;
33206;SDS011;19565;46.602;11.534;2023-09-12T07:30:12;13.75;;;12.80;;
33206;SDS011;19565;46.602;11.534;2023-09-12T07:32:40;13.32;;;12.32;;
33206;SDS011;19565;46.602;11.534;2023-09-12T07:35:08;12.90;;;11.98;;
33206;SDS011;19565;46.602;11.534;2023-09-12T07:37:36;13.07;;;12.07;;
33206;SDS011;19565;46.602;11.534;2023-09-12T07:40:05;12.70;;;11.98;;
33206;SDS011;19565;46.602;11.534;2023-09-12T07:42:36;14.60;;;13.77;;
33206;SDS011;19565;46.602;11.534;2023-09-12T07:45:04;17.88;;;16.25;;
33206;SDS011;19565;46.602;11.534;2023-09-12T07:47:34;18.85;;;17.70;;
33206;SDS011;19565;46.602;11.534;2023-09-12T07:50:03;17.02;;;16.13;;
33206;SDS011;19565;46.602;11.534;2023-09-12T07:52:33;20.05;;;18.77;;
33206;SDS011;19565;46.602;11.534;2023-09-12T07:55:01;20.55;;;19.25;;
33206;SDS011;19565;46.602;11.534;2023-09-12T07:57:30;23.95;;;22.52;;
33206;SDS011;19565;46.602;11.534;2023-09-12T07:59:58;23.08;;;21.77;;
33206;SDS011;19565;46.602;11.534;2023-09-12T08:02:26;27.42;;;26.13;;
33206;SDS011;19565;46.602;11.534;2023-09-12T08:04:55;32.50;;;31.00;;
33206;SDS011;19565;46.602;11.534;2023-09-12T08:07:23;37.00;;;35.33;;
33206;SDS011;19565;46.602;11.534;2023-09-12T08:09:52;39.95;;;38.25;;
33206;SDS011;19565;46.602;11.534;2023-09-12T08:12:21;44.13;;;42.30;;
33206;SDS011;19565;46.602;11.534;2023-09-12T08:14:50;46.15;;;44.03;;
33206;SDS011;19565;46.602;11.534;2023-09-12T08:17:18;51.05;;;48.72;;
33206;SDS011;19565;46.602;11.534;2023-09-12T08:19:46;49.70;;;47.50;;
33206;SDS011;19565;46.602;11.534;2023-09-12T08:22:16;49.60;;;47.40;;
33206;SDS011;19565;46.602;11.534;2023-09-12T08:24:45;48.88;;;46.72;;
33206;SDS011;19565;46.602;11.534;2023-09-12T08:27:13;48.22;;;46.03;;
33206;SDS011;19565;46.602;11.534;2023-09-12T08:29:41;48.42;;;46.17;;
33206;SDS011;19565;46.602;11.534;2023-09-12T08:32:10;49.83;;;47.53;;
33206;SDS011;19565;46.602;11.534;2023-09-12T08:34:39;51.58;;;49.38;;
33206;SDS011;19565;46.602;11.534;2023-09-12T08:37:06;52.65;;;50.28;;
33206;SDS011;19565;46.602;11.534;2023-09-12T08:39:41;53.58;;;51.00;;
33206;SDS011;19565;46.602;11.534;2023-09-12T08:42:11;52.45;;;50.15;;
33206;SDS011;19565;46.602;11.534;2023-09-12T08:44:40;51.35;;;48.95;;
33206;SDS011;19565;46.602;11.534;2023-09-12T08:47:09;54.50;;;52.00;;
33206;SDS011;19565;46.602;11.534;2023-09-12T08:49:39;53.65;;;51.35;;
33206;SDS011;19565;46.602;11.534;2023-09-12T08:52:08;51.80;;;49.60;;
33206;SDS011;19565;46.602;11.534;2023-09-12T08:54:37;55.28;;;52.90;;
33206;SDS011;19565;46.602;11.534;2023-09-12T08:57:06;59.58;;;56.95;;
33206;SDS011;19565;46.602;11.534;2023-09-12T08:59:36;54.13;;;51.55;;
33206;SDS011;19565;46.602;11.534;2023-09-12T09:02:05;53.38;;;50.97;;
33206;SDS011;19565;46.602;11.534;2023-09-12T09:04:36;52.35;;;50.08;;
33206;SDS011;19565;46.602;11.534;2023-09-12T09:07:05;51.53;;;49.25;;
33206;SDS011;19565;46.602;11.534;2023-09-12T09:09:35;60.25;;;57.28;;
33206;SDS011;19565;46.602;11.534;2023-09-12T09:12:07;55.38;;;52.95;;
33206;SDS011;19565;46.602;11.534;2023-09-12T09:14:37;56.20;;;53.53;;
33206;SDS011;19565;46.602;11.534;2023-09-12T09:17:05;56.22;;;53.78;;
33206;SDS011;19565;46.602;11.534;2023-09-12T09:19:44;60.53;;;57.83;;
33206;SDS011;19565;46.602;11.534;2023-09-12T09:22:12;62.17;;;59.22;;
33206;SDS011;19565;46.602;11.534;2023-09-12T09:24:40;62.75;;;59.92;;
33206;SDS011;19565;46.602;11.534;2023-09-12T09:27:10;61.38;;;58.58;;
33206;SDS011;19565;46.602;11.534;2023-09-12T09:29:45;67.30;;;64.30;;
33206;SDS011;19565;46.602;11.534;2023-09-12T09:32:16;68.55;;;65.55;;
33206;SDS011;19565;46.602;11.534;2023-09-12T09:34:45;69.10;;;66.00;;
33206;SDS011;19565;46.602;11.534;2023-09-12T09:37:13;67.88;;;64.85;;
33206;SDS011;19565;46.602;11.534;2023-09-12T09:39:41;64.47;;;61.47;;
33206;SDS011;19565;46.602;11.534;2023-09-12T09:42:12;60.45;;;57.75;;
33206;SDS011;19565;46.602;11.534;2023-09-12T09:44:40;61.58;;;58.80;;
33206;SDS011;19565;46.602;11.534;2023-09-12T09:47:08;67.22;;;64.10;;
33206;SDS011;19565;46.602;11.534;2023-09-12T09:49:36;61.00;;;58.00;;
33206;SDS011;19565;46.602;11.534;2023-09-12T09:52:04;63.38;;;59.13;;
33206;SDS011;19565;46.602;11.534;2023-09-12T09:54:32;63.72;;;60.13;;
33206;SDS011;19565;46.602;11.534;2023-09-12T09:57:00;73.32;;;68.63;;
33206;SDS011;19565;46.602;11.534;2023-09-12T09:59:30;75.65;;;72.30;;
33206;SDS011;19565;46.602;11.534;2023-09-12T10:01:58;67.07;;;63.88;;
33206;SDS011;19565;46.602;11.534;2023-09-12T10:04:29;76.38;;;72.63;;
33206;SDS011;19565;46.602;11.534;2023-09-12T10:07:11;69.82;;;66.65;;
33206;SDS011;19565;46.602;11.534;2023-09-12T10:09:39;75.47;;;71.82;;
33206;SDS011;19565;46.602;11.534;2023-09-12T10:12:10;72.72;;;69.32;;
33206;SDS011;19565;46.602;11.534;2023-09-12T10:14:40;70.30;;;67.20;;
33206;SDS011;19565;46.602;11.534;2023-09-12T10:17:10;69.82;;;66.72;;
33206;SDS011;19565;46.602;11.534;2023-09-12T10:19:45;76.07;;;72.53;;
33206;SDS011;19565;46.602;11.534;2023-09-12T10:22:24;70.45;;;67.25;;
33206;SDS011;19565;46.602;11.534;2023-09-12T10:24:57;68.22;;;65.13;;
33206;SDS011;19565;46.602;11.534;2023-09-12T10:27:27;73.60;;;70.30;;
33206;SDS011;19565;46.602;11.534;2023-09-12T10:29:58;73.30;;;69.82;;
33206;SDS011;19565;46.602;11.534;2023-09-12T10:32:26;70.80;;;67.45;;
33206;SDS011;19565;46.602;11.534;2023-09-12T10:34:58;72.35;;;69.15;;
33206;SDS011;19565;46.602;11.534;2023-09-12T10:37:26;71.88;;;68.53;;
33206;SDS011;19565;46.602;11.534;2023-09-12T10:39:56;70.68;;;67.00;;
33206;SDS011;19565;46.602;11.534;2023-09-12T10:42:27;72.10;;;68.88;;
33206;SDS011;19565;46.602;11.534;2023-09-12T10:44:55;71.57;;;68.47;;
33206;SDS011;19565;46.602;11.534;2023-09-12T10:47:29;67.88;;;64.88;;
33206;SDS011;19565;46.602;11.534;2023-09-12T10:49:58;71.82;;;68.63;;
33206;SDS011;19565;46.602;11.534;2023-09-12T10:52:26;75.47;;;72.13;;
33206;SDS011;19565;46.602;11.534;2023-09-12T10:54:55;74.25;;;71.03;;
33206;SDS011;19565;46.602;11.534;2023-09-12T10:57:23;71.43;;;67.47;;
33206;SDS011;19565;46.602;11.534;2023-09-12T11:02:45;77.70;;;74.40;;
33206;SDS011;19565;46.602;11.534;2023-09-12T11:08:03;79.05;;;75.55;;
33206;SDS011;19565;46.602;11.534;2023-09-12T11:10:31;74.60;;;71.30;;
33206;SDS011;19565;46.602;11.534;2023-09-12T11:12:59;67.72;;;64.72;;
33206;SDS011;19565;46.602;11.534;2023-09-12T11:15:29;67.50;;;64.40;;
33206;SDS011;19565;46.602;11.534;2023-09-12T11:18:02;72.55;;;69.20;;
33206;SDS011;19565;46.602;11.534;2023-09-12T11:20:48;70.50;;;67.35;;
33206;SDS011;19565;46.602;11.534;2023-09-12T11:23:18;71.22;;;67.93;;
33206;SDS011;19565;46.602;11.534;2023-09-12T11:25:47;68.22;;;65.25;;
33206;SDS011;19565;46.602;11.534;2023-09-12T11:28:15;69.88;;;66.78;;
33206;SDS011;19565;46.602;11.534;2023-09-12T11:30:56;87.15;;;80.40;;
33206;SDS011;19565;46.602;11.534;2023-09-12T11:33:25;79.43;;;75.07;;
33206;SDS011;19565;46.602;11.534;2023-09-12T11:35:54;72.32;;;68.55;;
33206;SDS011;19565;46.602;11.534;2023-09-12T11:38:27;71.20;;;67.93;;
33206;SDS011;19565;46.602;11.534;2023-09-12T11:40:57;70.65;;;67.50;;
33206;SDS011;19565;46.602;11.534;2023-09-12T11:43:27;74.18;;;70.18;;
33206;SDS011;19565;46.602;11.534;2023-09-12T11:45:57;69.60;;;66.47;;
33206;SDS011;19565;46.602;11.534;2023-09-12T11:48:25;68.15;;;64.63;;
33206;SDS011;19565;46.602;11.534;2023-09-12T11:50:56;72.20;;;68.90;;
33206;SDS011;19565;46.602;11.534;2023-09-12T11:53:25;76.22;;;72.60;;
33206;SDS011;19565;46.602;11.534;2023-09-12T11:55:58;74.35;;;70.72;;
33206;SDS011;19565;46.602;11.534;2023-09-12T11:58:27;73.43;;;70.22;;
33206;SDS011;19565;46.602;11.534;2023-09-12T12:00:57;84.40;;;80.70;;
33206;SDS011;19565;46.602;11.534;2023-09-12T12:03:26;75.80;;;72.50;;
33206;SDS011;19565;46.602;11.534;2023-09-12T12:05:55;72.60;;;69.43;;
33206;SDS011;19565;46.602;11.534;2023-09-12T12:08:24;72.43;;;68.85;;
33206;SDS011;19565;46.602;11.534;2023-09-12T12:10:58;75.40;;;72.15;;
33206;SDS011;19565;46.602;11.534;2023-09-12T12:13:26;69.05;;;65.82;;
33206;SDS011;19565;46.602;11.534;2023-09-12T12:15:57;75.97;;;72.57;;
33206;SDS011;19565;46.602;11.534;2023-09-12T12:18:25;69.60;;;66.45;;
33206;SDS011;19565;46.602;11.534;2023-09-12T12:20:53;71.30;;;68.15;;
33206;SDS011;19565;46.602;11.534;2023-09-12T12:23:22;75.35;;;71.97;;
33206;SDS011;19565;46.602;11.534;2023-09-12T12:25:50;80.70;;;77.10;;
33206;SDS011;19565;46.602;11.534;2023-09-12T12:28:18;79.25;;;75.85;;
33206;SDS011;19565;46.602;11.534;2023-09-12T12:30:46;74.70;;;71.30;;
33206;SDS011;19565;46.602;11.534;2023-09-12T12:33:19;70.85;;;67.85;;
33206;SDS011;19565;46.602;11.534;2023-09-12T12:36:06;74.57;;;71.20;;
33206;SDS011;19565;46.602;11.534;2023-09-12T12:38:35;70.70;;;67.20;;
33206;SDS011;19565;46.602;11.534;2023-09-12T12:41:15;63.50;;;60.15;;
33206;SDS011;19565;46.602;11.534;2023-09-12T12:43:44;61.90;;;59.00;;
33206;SDS011;19565;46.602;11.534;2023-09-12T12:46:12;63.40;;;60.47;;
33206;SDS011;19565;46.602;11.534;2023-09-12T12:48:43;64.65;;;61.70;;
33206;SDS011;19565;46.602;11.534;2023-09-12T12:51:13;65.72;;;62.40;;
33206;SDS011;19565;46.602;11.534;2023-09-12T12:53:43;66.13;;;63.22;;
33206;SDS011;19565;46.602;11.534;2023-09-12T12:56:20;64.53;;;61.53;;
33206;SDS011;19565;46.602;11.534;2023-09-12T12:58:49;68.05;;;65.05;;
33206;SDS011;19565;46.602;11.534;2023-09-12T13:01:18;67.07;;;64.10;;
33206;SDS011;19565;46.602;11.534;2023-09-12T13:03:48;68.72;;;65.68;;
33206;SDS011;19565;46.602;11.534;2023-09-12T13:06:17;67.85;;;64.15;;
33206;SDS011;19565;46.602;11.534;2023-09-12T13:08:46;65.50;;;62.28;;
33206;SDS011;19565;46.602;11.534;2023-09-12T13:11:16;69.32;;;65.55;;
33206;SDS011;19565;46.602;11.534;2023-09-12T13:13:44;65.50;;;62.28;;
33206;SDS011;19565;46.602;11.534;2023-09-12T13:16:14;66.05;;;63.10;;
33206;SDS011;19565;46.602;11.534;2023-09-12T13:18:43;69.15;;;66.03;;
33206;SDS011;19565;46.602;11.534;2023-09-12T13:21:12;66.07;;;63.15;;
33206;SDS011;19565;46.602;11.534;2023-09-12T13:23:41;66.85;;;63.78;;
33206;SDS011;19565;46.602;11.534;2023-09-12T13:26:09;68.82;;;65.60;;
33206;SDS011;19565;46.602;11.534;2023-09-12T13:28:40;67.68;;;64.45;;
33206;SDS011;19565;46.602;11.534;2023-09-12T13:31:08;66.65;;;63.58;;
33206;SDS011;19565;46.602;11.534;2023-09-12T13:33:36;81.20;;;76.97;;
33206;SDS011;19565;46.602;11.534;2023-09-12T13:36:04;64.70;;;61.85;;
33206;SDS011;19565;46.602;11.534;2023-09-12T13:38:34;65.88;;;62.63;;
33206;SDS011;19565;46.602;11.534;2023-09-12T13:41:02;67.53;;;63.72;;
33206;SDS011;19565;46.602;11.534;2023-09-12T13:43:30;65.82;;;62.65;;
33206;SDS011;19565;46.602;11.534;2023-09-12T13:45:58;65.35;;;62.45;;
33206;SDS011;19565;46.602;11.534;2023-09-12T13:48:26;66.35;;;63.25;;
33206;SDS011;19565;46.602;11.534;2023-09-12T13:50:54;63.42;;;60.53;;
33206;SDS011;19565;46.602;11.534;2023-09-12T13:53:22;64.20;;;60.17;;
33206;SDS011;19565;46.602;11.534;2023-09-12T13:55:51;64.75;;;61.75;;
33206;SDS011;19565;46.602;11.534;2023-09-12T13:58:20;67.13;;;63.35;;
33206;SDS011;19565;46.602;11.534;2023-09-12T14:00:49;67.38;;;64.38;;
33206;SDS011;19565;46.602;11.534;2023-09-12T14:03:17;64.22;;;61.20;;
33206;SDS011;19565;46.602;11.534;2023-09-12T14:05:46;62.85;;;60.00;;
33206;SDS011;19565;46.602;11.534;2023-09-12T14:08:15;66.32;;;63.33;;
33206;SDS011;19565;46.602;11.534;2023-09-12T14:10:44;62.15;;;59.28;;
33206;SDS011;19565;46.602;11.534;2023-09-12T14:13:14;63.45;;;60.35;;
33206;SDS011;19565;46.602;11.534;2023-09-12T14:15:47;62.25;;;58.60;;
33206;SDS011;19565;46.602;11.534;2023-09-12T14:18:17;62.92;;;59.92;;
33206;SDS011;19565;46.602;11.534;2023-09-12T14:20:48;63.85;;;60.92;;
33206;SDS011;19565;46.602;11.534;2023-09-12T14:23:19;64.07;;;61.13;;
33206;SDS011;19565;46.602;11.534;2023-09-12T14:25:48;68.47;;;64.82;;
33206;SDS011;19565;46.602;11.534;2023-09-12T14:28:18;64.03;;;61.22;;
33206;SDS011;19565;46.602;11.534;2023-09-12T14:30:47;62.88;;;59.88;;
33206;SDS011;19565;46.602;11.534;2023-09-12T14:33:16;65.05;;;62.15;;
33206;SDS011;19565;46.602;11.534;2023-09-12T14:35:45;64.93;;;61.72;;
33206;SDS011;19565;46.602;11.534;2023-09-12T14:38:14;62.50;;;59.38;;